createdAt,value
2018-06-14T00:00:04.989Z,16.84
2018-06-14T00:00:31.139Z,16.79
2018-06-14T00:00:57.332Z,16.81
2018-06-14T00:01:23.467Z,16.72
2018-06-14T00:01:49.604Z,16.79
2018-06-14T00:02:15.768Z,16.81
2018-06-14T00:02:41.902Z,16.81
2018-06-14T00:03:08.044Z,16.76
2018-06-14T00:03:34.199Z,16.72
2018-06-14T00:04:00.339Z,16.69
2018-06-14T00:04:26.478Z,16.72
2018-06-14T00:04:52.617Z,16.69
2018-06-14T00:05:18.779Z,16.71
2018-06-14T00:05:44.948Z,16.65
2018-06-14T00:06:11.087Z,16.75
2018-06-14T00:06:37.224Z,16.66
2018-06-14T00:07:03.608Z,16.61
2018-06-14T00:07:30.233Z,16.64
2018-06-14T00:07:56.529Z,16.74
2018-06-14T00:08:22.689Z,16.69
2018-06-14T00:08:48.830Z,16.6
2018-06-14T00:09:14.957Z,16.61
2018-06-14T00:09:41.097Z,16.57
2018-06-14T00:10:07.245Z,16.56
2018-06-14T00:10:33.392Z,16.51
2018-06-14T00:10:59.552Z,16.58
2018-06-14T00:11:25.691Z,16.6
2018-06-14T00:11:51.822Z,16.58
2018-06-14T00:12:17.964Z,16.6
2018-06-14T00:12:44.110Z,16.47
2018-06-14T00:13:10.273Z,16.58
2018-06-14T00:13:36.409Z,16.58
2018-06-14T00:14:02.559Z,16.51
2018-06-14T00:14:28.720Z,16.51
2018-06-14T00:14:54.856Z,16.47
2018-06-14T00:15:21.052Z,16.53
2018-06-14T00:15:47.191Z,16.42
2018-06-14T00:16:13.325Z,16.54
2018-06-14T00:16:39.465Z,16.42
2018-06-14T00:17:05.603Z,16.43
2018-06-14T00:17:31.874Z,16.41
2018-06-14T00:17:57.877Z,16.47
2018-06-14T00:18:24.066Z,16.46
2018-06-14T00:18:50.207Z,16.41
2018-06-14T00:19:16.343Z,16.46
2018-06-14T00:19:42.483Z,16.47
2018-06-14T00:20:08.640Z,16.47
2018-06-14T00:20:34.799Z,16.46
2018-06-14T00:21:00.943Z,16.49
2018-06-14T00:21:27.076Z,16.41
2018-06-14T00:21:53.218Z,16.42
2018-06-14T00:22:19.383Z,16.35
2018-06-14T00:22:45.523Z,16.41
2018-06-14T00:23:11.654Z,16.38
2018-06-14T00:23:37.820Z,16.35
2018-06-14T00:24:03.962Z,16.36
2018-06-14T00:24:30.098Z,16.35
2018-06-14T00:24:56.231Z,16.32
2018-06-14T00:25:22.378Z,16.31
2018-06-14T00:25:48.521Z,16.29
2018-06-14T00:26:14.654Z,16.33
2018-06-14T00:26:40.800Z,16.31
2018-06-14T00:27:06.930Z,16.31
2018-06-14T00:27:33.064Z,16.32
2018-06-14T00:27:59.225Z,16.26
2018-06-14T00:28:25.363Z,16.24
2018-06-14T00:28:51.507Z,16.23
2018-06-14T00:29:17.680Z,16.24
2018-06-14T00:29:43.817Z,16.29
2018-06-14T00:30:09.957Z,16.29
2018-06-14T00:30:36.090Z,16.29
2018-06-14T00:31:02.224Z,16.32
2018-06-14T00:31:28.393Z,16.23
2018-06-14T00:31:54.536Z,16.28
2018-06-14T00:32:20.673Z,16.31
2018-06-14T00:32:46.843Z,16.28
2018-06-14T00:33:12.970Z,16.24
2018-06-14T00:33:39.138Z,16.26
2018-06-14T00:34:05.298Z,16.31
2018-06-14T00:34:31.443Z,16.31
2018-06-14T00:34:57.580Z,16.29
2018-06-14T00:35:23.712Z,16.28
2018-06-14T00:35:49.857Z,16.26
2018-06-14T00:36:16.010Z,16.28
2018-06-14T00:36:42.152Z,16.28
2018-06-14T00:37:08.309Z,16.23
2018-06-14T00:37:34.473Z,16.28
2018-06-14T00:38:00.611Z,16.26
2018-06-14T00:38:26.757Z,16.21
2018-06-14T00:38:52.893Z,16.15
2018-06-14T00:39:19.042Z,16.15
2018-06-14T00:39:45.204Z,16.15
2018-06-14T00:40:11.355Z,16.16
2018-06-14T00:40:37.481Z,16.13
2018-06-14T00:41:03.617Z,16.16
2018-06-14T00:41:29.764Z,16.05
2018-06-14T00:41:55.901Z,16.15
2018-06-14T00:42:22.042Z,16.1
2018-06-14T00:42:48.185Z,16.09
2018-06-14T00:43:14.320Z,16.08
2018-06-14T00:43:40.483Z,16.13
2018-06-14T00:44:06.652Z,16.05
2018-06-14T00:44:32.794Z,16.13
2018-06-14T00:44:58.930Z,16.05
2018-06-14T00:45:25.094Z,15.98
2018-06-14T00:45:51.236Z,16.1
2018-06-14T00:46:17.395Z,16.02
2018-06-14T00:46:43.533Z,15.98
2018-06-14T00:47:09.667Z,15.98
2018-06-14T00:47:35.816Z,16
2018-06-14T00:48:01.951Z,15.97
2018-06-14T00:48:28.094Z,16.05
2018-06-14T00:48:54.260Z,16.02
2018-06-14T00:49:20.396Z,16.01
2018-06-14T00:49:46.532Z,15.97
2018-06-14T00:50:12.700Z,15.94
2018-06-14T00:50:38.864Z,16.05
2018-06-14T00:51:05.022Z,16.09
2018-06-14T00:51:31.182Z,16
2018-06-14T00:51:57.321Z,16
2018-06-14T00:52:23.463Z,16.08
2018-06-14T00:52:49.606Z,15.97
2018-06-14T00:53:15.748Z,16
2018-06-14T00:53:41.885Z,16.04
2018-06-14T00:54:08.043Z,15.98
2018-06-14T00:54:34.180Z,15.97
2018-06-14T00:55:00.314Z,16.08
2018-06-14T00:55:26.452Z,16.05
2018-06-14T00:55:52.615Z,16.13
2018-06-14T00:56:18.751Z,16.12
2018-06-14T00:56:44.897Z,16.09
2018-06-14T00:57:11.036Z,16.08
2018-06-14T00:57:37.176Z,16.09
2018-06-14T00:58:03.364Z,15.98
2018-06-14T00:58:29.497Z,16.04
2018-06-14T00:58:55.650Z,16.09
2018-06-14T00:59:21.785Z,16.16
2018-06-14T00:59:47.924Z,16.09
2018-06-14T01:00:14.059Z,16.1
2018-06-14T01:00:40.202Z,16.13
2018-06-14T01:01:06.341Z,16.04
2018-06-14T01:01:32.483Z,16.04
2018-06-14T01:01:58.646Z,16.12
2018-06-14T01:02:24.787Z,16.13
2018-06-14T01:02:50.918Z,16.13
2018-06-14T01:03:17.063Z,16.13
2018-06-14T01:03:43.190Z,16.08
2018-06-14T01:04:09.333Z,16.08
2018-06-14T01:04:35.468Z,16.09
2018-06-14T01:05:01.612Z,16.04
2018-06-14T01:05:27.774Z,16.01
2018-06-14T01:05:53.906Z,15.97
2018-06-14T01:06:20.050Z,16
2018-06-14T01:06:46.230Z,16.04
2018-06-14T01:07:12.378Z,16.01
2018-06-14T01:07:38.533Z,15.95
2018-06-14T01:08:04.673Z,16.02
2018-06-14T01:08:30.811Z,16.05
2018-06-14T01:08:56.971Z,16.01
2018-06-14T01:09:23.159Z,16.04
2018-06-14T01:09:49.297Z,16.05
2018-06-14T01:10:15.438Z,16.01
2018-06-14T01:10:41.577Z,15.92
2018-06-14T01:11:07.714Z,16.05
2018-06-14T01:11:33.855Z,15.98
2018-06-14T01:11:59.992Z,15.9
2018-06-14T01:12:26.136Z,15.92
2018-06-14T01:12:52.268Z,16.02
2018-06-14T01:13:18.415Z,16
2018-06-14T01:13:44.554Z,15.95
2018-06-14T01:14:10.692Z,15.94
2018-06-14T01:14:36.829Z,15.95
2018-06-14T01:15:02.993Z,15.91
2018-06-14T01:15:29.124Z,15.86
2018-06-14T01:15:55.263Z,15.9
2018-06-14T01:16:21.431Z,15.88
2018-06-14T01:16:47.566Z,15.88
2018-06-14T01:17:13.711Z,15.83
2018-06-14T01:17:39.841Z,15.88
2018-06-14T01:18:06.006Z,15.9
2018-06-14T01:18:32.141Z,15.86
2018-06-14T01:18:58.273Z,15.77
2018-06-14T01:19:24.420Z,15.83
2018-06-14T01:19:50.578Z,15.82
2018-06-14T01:20:16.714Z,15.82
2018-06-14T01:20:42.855Z,15.77
2018-06-14T01:21:08.993Z,15.73
2018-06-14T01:21:35.131Z,15.77
2018-06-14T01:22:01.298Z,15.77
2018-06-14T01:22:27.464Z,15.72
2018-06-14T01:22:53.602Z,15.73
2018-06-14T01:23:19.766Z,15.72
2018-06-14T01:23:45.896Z,15.7
2018-06-14T01:24:12.052Z,15.73
2018-06-14T01:24:38.240Z,15.67
2018-06-14T01:25:04.333Z,15.7
2018-06-14T01:25:30.471Z,15.68
2018-06-14T01:25:56.608Z,15.75
2018-06-14T01:26:22.768Z,15.73
2018-06-14T01:26:48.928Z,15.7
2018-06-14T01:27:15.064Z,15.68
2018-06-14T01:27:41.198Z,15.73
2018-06-14T01:28:07.334Z,15.68
2018-06-14T01:28:33.500Z,15.75
2018-06-14T01:28:59.637Z,15.7
2018-06-14T01:29:25.787Z,15.65
2018-06-14T01:29:51.922Z,15.75
2018-06-14T01:30:18.051Z,15.64
2018-06-14T01:30:44.221Z,15.64
2018-06-14T01:31:10.361Z,15.58
2018-06-14T01:31:36.505Z,15.64
2018-06-14T01:32:02.644Z,15.62
2018-06-14T01:32:28.783Z,15.65
2018-06-14T01:32:54.923Z,15.58
2018-06-14T01:33:21.063Z,15.59
2018-06-14T01:33:47.221Z,15.55
2018-06-14T01:34:13.361Z,15.58
2018-06-14T01:34:39.545Z,15.59
2018-06-14T01:35:05.688Z,15.57
2018-06-14T01:35:31.822Z,15.55
2018-06-14T01:35:57.963Z,15.55
2018-06-14T01:36:24.101Z,15.59
2018-06-14T01:36:50.266Z,15.55
2018-06-14T01:37:16.407Z,15.54
2018-06-14T01:37:42.550Z,15.54
2018-06-14T01:38:08.689Z,15.51
2018-06-14T01:38:34.828Z,15.51
2018-06-14T01:39:00.970Z,15.47
2018-06-14T01:39:27.105Z,15.49
2018-06-14T01:39:53.269Z,15.47
2018-06-14T01:40:19.406Z,15.4
2018-06-14T01:40:45.572Z,15.54
2018-06-14T01:41:11.710Z,15.46
2018-06-14T01:41:37.880Z,15.46
2018-06-14T01:42:04.036Z,15.51
2018-06-14T01:42:30.174Z,15.47
2018-06-14T01:42:56.296Z,15.46
2018-06-14T01:43:22.439Z,15.46
2018-06-14T01:43:48.597Z,15.47
2018-06-14T01:44:14.735Z,15.4
2018-06-14T01:44:40.890Z,15.42
2018-06-14T01:45:07.049Z,15.43
2018-06-14T01:45:33.195Z,15.4
2018-06-14T01:45:59.375Z,15.42
2018-06-14T01:46:25.533Z,15.46
2018-06-14T01:46:51.675Z,15.46
2018-06-14T01:47:17.815Z,15.47
2018-06-14T01:47:43.983Z,15.39
2018-06-14T01:48:10.124Z,15.36
2018-06-14T01:48:36.283Z,15.37
2018-06-14T01:49:02.426Z,15.37
2018-06-14T01:49:28.568Z,15.36
2018-06-14T01:49:54.709Z,15.43
2018-06-14T01:50:20.853Z,15.36
2018-06-14T01:50:46.990Z,15.42
2018-06-14T01:51:13.169Z,15.43
2018-06-14T01:51:39.313Z,15.36
2018-06-14T01:52:05.447Z,15.4
2018-06-14T01:52:31.608Z,15.33
2018-06-14T01:52:57.763Z,15.46
2018-06-14T01:53:23.922Z,15.39
2018-06-14T01:53:50.057Z,15.31
2018-06-14T01:54:16.219Z,15.39
2018-06-14T01:54:42.354Z,15.44
2018-06-14T01:55:08.495Z,15.39
2018-06-14T01:55:34.636Z,15.44
2018-06-14T01:56:00.796Z,15.43
2018-06-14T01:56:26.956Z,15.47
2018-06-14T01:56:53.121Z,15.42
2018-06-14T01:57:19.254Z,15.33
2018-06-14T01:57:45.400Z,15.37
2018-06-14T01:58:11.536Z,15.39
2018-06-14T01:58:37.680Z,15.39
2018-06-14T01:59:03.813Z,15.42
2018-06-14T01:59:29.955Z,15.39
2018-06-14T01:59:56.092Z,15.33
2018-06-14T02:00:22.231Z,15.4
2018-06-14T02:00:48.395Z,15.44
2018-06-14T02:01:14.537Z,15.36
2018-06-14T02:01:40.679Z,15.43
2018-06-14T02:02:06.846Z,15.47
2018-06-14T02:02:32.980Z,15.36
2018-06-14T02:02:59.145Z,15.39
2018-06-14T02:03:25.291Z,15.44
2018-06-14T02:03:51.429Z,15.39
2018-06-14T02:04:17.559Z,15.33
2018-06-14T02:04:43.703Z,15.43
2018-06-14T02:05:09.836Z,15.4
2018-06-14T02:05:35.996Z,15.36
2018-06-14T02:06:02.138Z,15.44
2018-06-14T02:06:28.326Z,15.42
2018-06-14T02:06:54.465Z,15.47
2018-06-14T02:07:20.643Z,15.47
2018-06-14T02:07:46.779Z,15.46
2018-06-14T02:08:12.919Z,15.46
2018-06-14T02:08:39.059Z,15.4
2018-06-14T02:09:05.190Z,15.43
2018-06-14T02:09:31.327Z,15.35
2018-06-14T02:09:57.465Z,15.37
2018-06-14T02:10:23.599Z,15.44
2018-06-14T02:10:49.748Z,15.47
2018-06-14T02:11:15.888Z,15.43
2018-06-14T02:11:42.023Z,15.4
2018-06-14T02:12:08.165Z,15.39
2018-06-14T02:12:34.304Z,15.44
2018-06-14T02:13:00.447Z,15.37
2018-06-14T02:13:26.613Z,15.37
2018-06-14T02:13:52.751Z,15.31
2018-06-14T02:14:18.884Z,15.29
2018-06-14T02:14:45.021Z,15.29
2018-06-14T02:15:11.154Z,15.27
2018-06-14T02:15:37.288Z,15.33
2018-06-14T02:16:03.425Z,15.33
2018-06-14T02:16:29.563Z,15.31
2018-06-14T02:16:55.722Z,15.33
2018-06-14T02:17:21.887Z,15.28
2018-06-14T02:17:48.028Z,15.39
2018-06-14T02:18:14.159Z,15.27
2018-06-14T02:18:40.301Z,15.28
2018-06-14T02:19:06.461Z,15.33
2018-06-14T02:19:32.624Z,15.33
2018-06-14T02:19:58.759Z,15.37
2018-06-14T02:20:24.898Z,15.27
2018-06-14T02:20:51.040Z,15.37
2018-06-14T02:21:17.175Z,15.37
2018-06-14T02:21:43.320Z,15.27
2018-06-14T02:22:09.459Z,15.29
2018-06-14T02:22:35.594Z,15.33
2018-06-14T02:23:01.761Z,15.31
2018-06-14T02:23:27.922Z,15.27
2018-06-14T02:23:54.065Z,15.31
2018-06-14T02:24:20.208Z,15.31
2018-06-14T02:24:46.343Z,15.29
2018-06-14T02:25:12.476Z,15.27
2018-06-14T02:25:38.616Z,15.25
2018-06-14T02:26:04.752Z,15.31
2018-06-14T02:26:30.918Z,15.33
2018-06-14T02:26:57.060Z,15.33
2018-06-14T02:27:23.200Z,15.24
2018-06-14T02:27:49.362Z,15.24
2018-06-14T02:28:15.501Z,15.21
2018-06-14T02:28:41.634Z,15.21
2018-06-14T02:29:07.864Z,15.19
2018-06-14T02:29:33.999Z,15.11
2018-06-14T02:30:00.166Z,15.15
2018-06-14T02:30:26.322Z,15.21
2018-06-14T02:30:52.462Z,15.21
2018-06-14T02:31:18.601Z,15.14
2018-06-14T02:31:44.786Z,15.14
2018-06-14T02:32:10.939Z,15.14
2018-06-14T02:32:37.131Z,15.07
2018-06-14T02:33:03.282Z,15.17
2018-06-14T02:33:29.447Z,15.25
2018-06-14T02:33:55.611Z,15.24
2018-06-14T02:34:21.791Z,15.21
2018-06-14T02:34:47.934Z,15.29
2018-06-14T02:35:14.077Z,15.22
2018-06-14T02:35:40.200Z,15.11
2018-06-14T02:36:06.337Z,15.15
2018-06-14T02:36:32.497Z,15.18
2018-06-14T02:36:58.653Z,15.14
2018-06-14T02:37:24.794Z,15.21
2018-06-14T02:37:50.959Z,15.09
2018-06-14T02:38:17.136Z,15.07
2018-06-14T02:38:43.300Z,15.07
2018-06-14T02:39:09.433Z,15.06
2018-06-14T02:39:35.636Z,15.06
2018-06-14T02:40:01.782Z,15.11
2018-06-14T02:40:27.971Z,15.1
2018-06-14T02:40:54.184Z,15.06
2018-06-14T02:41:20.321Z,15.07
2018-06-14T02:41:46.503Z,15.1
2018-06-14T02:42:12.672Z,15.02
2018-06-14T02:42:38.808Z,15.02
2018-06-14T02:43:05.001Z,15.02
2018-06-14T02:43:31.134Z,15.07
2018-06-14T02:43:57.330Z,14.96
2018-06-14T02:44:23.506Z,15
2018-06-14T02:44:49.673Z,15.06
2018-06-14T02:45:15.822Z,14.99
2018-06-14T02:45:41.980Z,14.99
2018-06-14T02:46:08.189Z,15.02
2018-06-14T02:46:34.328Z,14.97
2018-06-14T02:47:00.493Z,14.99
2018-06-14T02:47:26.631Z,15.04
2018-06-14T02:47:52.788Z,15.03
2018-06-14T02:48:18.928Z,14.96
2018-06-14T02:48:45.100Z,15
2018-06-14T02:49:11.238Z,14.94
2018-06-14T02:49:37.417Z,14.97
2018-06-14T02:50:03.575Z,15.02
2018-06-14T02:50:29.752Z,15.03
2018-06-14T02:50:55.888Z,15.02
2018-06-14T02:51:22.084Z,15.02
2018-06-14T02:51:48.238Z,15.02
2018-06-14T02:52:14.376Z,15.02
2018-06-14T02:52:40.549Z,14.96
2018-06-14T02:53:06.688Z,14.99
2018-06-14T02:53:32.841Z,15.04
2018-06-14T02:53:59.002Z,14.97
2018-06-14T02:54:25.160Z,15
2018-06-14T02:54:51.346Z,14.94
2018-06-14T02:55:17.485Z,14.91
2018-06-14T02:55:43.644Z,14.92
2018-06-14T02:56:09.816Z,14.97
2018-06-14T02:56:35.972Z,14.97
2018-06-14T02:57:02.136Z,14.92
2018-06-14T02:57:28.335Z,14.97
2018-06-14T02:57:54.517Z,14.97
2018-06-14T02:58:20.654Z,14.92
2018-06-14T02:58:46.816Z,14.92
2018-06-14T02:59:12.975Z,14.85
2018-06-14T02:59:39.152Z,14.88
2018-06-14T03:00:05.377Z,14.79
2018-06-14T03:00:31.608Z,14.79
2018-06-14T03:00:57.847Z,14.89
2018-06-14T03:01:24.210Z,14.85
2018-06-14T03:01:50.472Z,14.85
2018-06-14T03:02:16.661Z,14.96
2018-06-14T03:02:43.016Z,14.92
2018-06-14T03:03:09.250Z,14.96
2018-06-14T03:03:35.501Z,14.92
2018-06-14T03:04:01.686Z,14.96
2018-06-14T03:04:27.845Z,14.94
2018-06-14T03:04:54.013Z,14.97
2018-06-14T03:05:20.169Z,14.96
2018-06-14T03:05:46.314Z,14.96
2018-06-14T03:06:12.514Z,14.91
2018-06-14T03:06:38.673Z,14.84
2018-06-14T03:07:04.869Z,14.86
2018-06-14T03:07:31.026Z,14.86
2018-06-14T03:07:57.189Z,14.84
2018-06-14T03:08:23.376Z,14.82
2018-06-14T03:08:49.515Z,14.84
2018-06-14T03:09:15.662Z,14.82
2018-06-14T03:09:41.846Z,14.77
2018-06-14T03:10:07.987Z,14.68
2018-06-14T03:10:34.142Z,14.82
2018-06-14T03:11:00.314Z,14.69
2018-06-14T03:11:26.449Z,14.86
2018-06-14T03:11:52.617Z,14.79
2018-06-14T03:12:18.823Z,14.86
2018-06-14T03:12:44.995Z,14.7
2018-06-14T03:13:11.159Z,14.69
2018-06-14T03:13:37.318Z,14.77
2018-06-14T03:14:03.457Z,14.73
2018-06-14T03:14:29.606Z,14.73
2018-06-14T03:14:55.792Z,14.72
2018-06-14T03:15:21.958Z,14.66
2018-06-14T03:15:48.155Z,14.65
2018-06-14T03:16:14.324Z,14.68
2018-06-14T03:16:40.542Z,14.66
2018-06-14T03:17:06.708Z,14.69
2018-06-14T03:17:32.866Z,14.69
2018-06-14T03:17:59.006Z,14.65
2018-06-14T03:18:25.148Z,14.65
2018-06-14T03:18:51.307Z,14.69
2018-06-14T03:19:17.496Z,14.73
2018-06-14T03:19:43.655Z,14.66
2018-06-14T03:20:09.797Z,14.65
2018-06-14T03:20:35.937Z,14.65
2018-06-14T03:21:02.095Z,14.66
2018-06-14T03:21:28.259Z,14.7
2018-06-14T03:21:54.420Z,14.66
2018-06-14T03:22:20.559Z,14.54
2018-06-14T03:22:46.696Z,14.65
2018-06-14T03:23:12.858Z,14.65
2018-06-14T03:23:39.016Z,14.55
2018-06-14T03:24:05.175Z,14.59
2018-06-14T03:24:31.319Z,14.58
2018-06-14T03:24:57.458Z,14.59
2018-06-14T03:25:23.597Z,14.69
2018-06-14T03:25:49.727Z,14.62
2018-06-14T03:26:15.865Z,14.63
2018-06-14T03:26:42.008Z,14.68
2018-06-14T03:27:08.174Z,14.6
2018-06-14T03:27:34.307Z,14.55
2018-06-14T03:28:00.444Z,14.68
2018-06-14T03:28:26.575Z,14.68
2018-06-14T03:28:52.738Z,14.66
2018-06-14T03:29:18.910Z,14.68
2018-06-14T03:29:45.043Z,14.65
2018-06-14T03:30:11.228Z,14.68
2018-06-14T03:30:37.411Z,14.69
2018-06-14T03:31:03.593Z,14.63
2018-06-14T03:31:29.732Z,14.58
2018-06-14T03:31:55.868Z,14.69
2018-06-14T03:32:22.009Z,14.6
2018-06-14T03:32:48.140Z,14.55
2018-06-14T03:33:14.297Z,14.69
2018-06-14T03:33:40.443Z,14.63
2018-06-14T03:34:06.599Z,14.59
2018-06-14T03:34:32.760Z,14.55
2018-06-14T03:34:58.949Z,14.58
2018-06-14T03:35:25.087Z,14.59
2018-06-14T03:35:51.227Z,14.6
2018-06-14T03:36:17.388Z,14.6
2018-06-14T03:36:43.524Z,14.68
2018-06-14T03:37:09.665Z,14.66
2018-06-14T03:37:35.821Z,14.59
2018-06-14T03:38:01.969Z,14.66
2018-06-14T03:38:28.180Z,14.66
2018-06-14T03:38:54.317Z,14.69
2018-06-14T03:39:20.453Z,14.59
2018-06-14T03:39:46.599Z,14.59
2018-06-14T03:40:12.739Z,14.6
2018-06-14T03:40:38.921Z,14.66
2018-06-14T03:41:05.010Z,14.58
2018-06-14T03:41:31.151Z,14.55
2018-06-14T03:41:57.294Z,14.59
2018-06-14T03:42:23.451Z,14.54
2018-06-14T03:42:49.589Z,14.47
2018-06-14T03:43:15.726Z,14.51
2018-06-14T03:43:41.865Z,14.45
2018-06-14T03:44:08.004Z,14.58
2018-06-14T03:44:34.148Z,14.48
2018-06-14T03:45:00.284Z,14.53
2018-06-14T03:45:26.418Z,14.51
2018-06-14T03:45:52.560Z,14.55
2018-06-14T03:46:18.698Z,14.5
2018-06-14T03:46:44.829Z,14.51
2018-06-14T03:47:10.986Z,14.47
2018-06-14T03:47:37.160Z,14.47
2018-06-14T03:48:03.297Z,14.65
2018-06-14T03:48:29.436Z,14.62
2018-06-14T03:48:55.630Z,14.59
2018-06-14T03:49:21.778Z,14.65
2018-06-14T03:49:47.922Z,14.59
2018-06-14T03:50:14.059Z,14.53
2018-06-14T03:50:40.217Z,14.59
2018-06-14T03:51:06.384Z,14.59
2018-06-14T03:51:32.521Z,14.54
2018-06-14T03:51:58.677Z,14.59
2018-06-14T03:52:24.818Z,14.58
2018-06-14T03:52:50.958Z,14.53
2018-06-14T03:53:17.087Z,14.53
2018-06-14T03:53:43.245Z,14.66
2018-06-14T03:54:09.382Z,14.62
2018-06-14T03:54:35.526Z,14.58
2018-06-14T03:55:01.688Z,14.63
2018-06-14T03:55:27.829Z,14.59
2018-06-14T03:55:53.974Z,14.69
2018-06-14T03:56:20.136Z,14.59
2018-06-14T03:56:46.287Z,14.6
2018-06-14T03:57:12.463Z,14.63
2018-06-14T03:57:38.599Z,14.63
2018-06-14T03:58:04.740Z,14.72
2018-06-14T03:58:30.904Z,14.6
2018-06-14T03:58:57.040Z,14.66
2018-06-14T03:59:23.178Z,14.62
2018-06-14T03:59:49.335Z,14.62
2018-06-14T04:00:15.477Z,14.65
2018-06-14T04:00:41.640Z,14.63
2018-06-14T04:01:07.772Z,14.65
2018-06-14T04:01:33.913Z,14.6
2018-06-14T04:02:00.054Z,14.59
2018-06-14T04:02:26.210Z,14.6
2018-06-14T04:02:52.351Z,14.65
2018-06-14T04:03:18.489Z,14.66
2018-06-14T04:03:44.627Z,14.55
2018-06-14T04:04:10.791Z,14.58
2018-06-14T04:04:36.924Z,14.58
2018-06-14T04:05:03.068Z,14.63
2018-06-14T04:05:29.207Z,14.69
2018-06-14T04:05:55.341Z,14.65
2018-06-14T04:06:21.486Z,14.69
2018-06-14T04:06:47.621Z,14.66
2018-06-14T04:07:13.782Z,14.58
2018-06-14T04:07:39.939Z,14.54
2018-06-14T04:08:06.098Z,14.6
2018-06-14T04:08:32.262Z,14.65
2018-06-14T04:08:58.398Z,14.63
2018-06-14T04:09:24.537Z,14.65
2018-06-14T04:09:50.682Z,14.7
2018-06-14T04:10:16.856Z,14.66
2018-06-14T04:10:42.971Z,14.66
2018-06-14T04:11:09.112Z,14.66
2018-06-14T04:11:35.249Z,14.77
2018-06-14T04:12:01.385Z,14.72
2018-06-14T04:12:27.531Z,14.78
2018-06-14T04:12:53.663Z,14.73
2018-06-14T04:13:19.806Z,14.79
2018-06-14T04:13:45.936Z,14.7
2018-06-14T04:14:12.073Z,14.72
2018-06-14T04:14:38.211Z,14.7
2018-06-14T04:15:04.351Z,14.77
2018-06-14T04:15:30.509Z,14.69
2018-06-14T04:15:56.648Z,14.81
2018-06-14T04:16:22.790Z,14.81
2018-06-14T04:16:48.923Z,14.78
2018-06-14T04:17:15.066Z,14.84
2018-06-14T04:17:41.225Z,14.7
2018-06-14T04:18:07.358Z,14.82
2018-06-14T04:18:33.517Z,14.79
2018-06-14T04:18:59.634Z,14.85
2018-06-14T04:19:25.768Z,14.91
2018-06-14T04:19:51.913Z,14.88
2018-06-14T04:20:18.052Z,14.97
2018-06-14T04:20:44.211Z,14.97
2018-06-14T04:21:10.348Z,14.97
2018-06-14T04:21:36.518Z,15.02
2018-06-14T04:22:02.674Z,14.97
2018-06-14T04:22:28.811Z,14.97
2018-06-14T04:22:54.946Z,15.06
2018-06-14T04:23:21.094Z,15.14
2018-06-14T04:23:47.238Z,15.15
2018-06-14T04:24:13.373Z,15.11
2018-06-14T04:24:39.511Z,15.19
2018-06-14T04:25:05.651Z,15.29
2018-06-14T04:25:31.821Z,15.25
2018-06-14T04:25:57.953Z,15.28
2018-06-14T04:26:24.091Z,15.29
2018-06-14T04:26:50.229Z,15.33
2018-06-14T04:27:16.377Z,15.25
2018-06-14T04:27:42.555Z,15.4
2018-06-14T04:28:08.721Z,15.33
2018-06-14T04:28:34.879Z,15.46
2018-06-14T04:29:01.017Z,15.35
2018-06-14T04:29:27.154Z,15.35
2018-06-14T04:29:53.295Z,15.43
2018-06-14T04:30:19.436Z,15.4
2018-06-14T04:30:45.570Z,15.46
2018-06-14T04:31:11.715Z,15.46
2018-06-14T04:31:37.852Z,15.4
2018-06-14T04:32:03.984Z,15.44
2018-06-14T04:32:30.125Z,15.44
2018-06-14T04:32:56.277Z,15.4
2018-06-14T04:33:22.468Z,15.47
2018-06-14T04:33:48.604Z,15.4
2018-06-14T04:34:14.746Z,15.55
2018-06-14T04:34:40.912Z,15.54
2018-06-14T04:35:07.058Z,15.55
2018-06-14T04:35:33.188Z,15.52
2018-06-14T04:35:59.326Z,15.52
2018-06-14T04:36:25.469Z,15.57
2018-06-14T04:36:51.606Z,15.64
2018-06-14T04:37:17.742Z,15.61
2018-06-14T04:37:43.875Z,15.68
2018-06-14T04:38:10.021Z,15.7
2018-06-14T04:38:36.176Z,15.72
2018-06-14T04:39:02.313Z,15.77
2018-06-14T04:39:28.471Z,15.7
2018-06-14T04:39:54.617Z,15.86
2018-06-14T04:40:20.756Z,16.05
2018-06-14T04:40:46.902Z,16.17
2018-06-14T04:41:13.039Z,16.32
2018-06-14T04:41:39.208Z,16.5
2018-06-14T04:42:05.373Z,16.71
2018-06-14T04:42:31.513Z,16.83
2018-06-14T04:42:57.646Z,17.09
2018-06-14T04:43:23.809Z,17.26
2018-06-14T04:43:49.969Z,17.49
2018-06-14T04:44:16.139Z,17.63
2018-06-14T04:44:42.280Z,17.76
2018-06-14T04:45:08.442Z,17.97
2018-06-14T04:45:34.584Z,18.13
2018-06-14T04:46:00.737Z,18.33
2018-06-14T04:46:26.874Z,18.55
2018-06-14T04:46:53.017Z,18.75
2018-06-14T04:47:19.154Z,18.8
2018-06-14T04:47:45.318Z,19.02
2018-06-14T04:48:11.466Z,19.12
2018-06-14T04:48:37.607Z,19.21
2018-06-14T04:49:03.768Z,19.3
2018-06-14T04:49:29.934Z,19.48
2018-06-14T04:49:56.102Z,19.59
2018-06-14T04:50:22.291Z,19.73
2018-06-14T04:50:48.436Z,19.84
2018-06-14T04:51:14.593Z,20.09
2018-06-14T04:51:40.732Z,20.18
2018-06-14T04:52:06.877Z,20.25
2018-06-14T04:52:33.035Z,20.32
2018-06-14T04:52:59.169Z,20.47
2018-06-14T04:53:25.309Z,20.44
2018-06-14T04:53:51.485Z,20.55
2018-06-14T04:54:17.628Z,20.67
2018-06-14T04:54:43.769Z,20.74
2018-06-14T04:55:09.909Z,20.93
2018-06-14T04:55:36.049Z,21.06
2018-06-14T04:56:02.191Z,21.09
2018-06-14T04:56:28.343Z,21.18
2018-06-14T04:56:54.484Z,21.39
2018-06-14T04:57:20.620Z,21.58
2018-06-14T04:57:46.759Z,21.62
2018-06-14T04:58:12.895Z,21.76
2018-06-14T04:58:39.032Z,21.93
2018-06-14T04:59:05.176Z,21.98
2018-06-14T04:59:31.318Z,21.93
2018-06-14T04:59:57.479Z,22.15
2018-06-14T05:00:23.621Z,22.15
2018-06-14T05:00:49.788Z,22.29
2018-06-14T05:01:15.928Z,22.36
2018-06-14T05:01:42.149Z,22.47
2018-06-14T05:02:08.236Z,22.53
2018-06-14T05:02:34.393Z,22.65
2018-06-14T05:03:00.559Z,22.72
2018-06-14T05:03:26.698Z,22.93
2018-06-14T05:03:52.834Z,22.98
2018-06-14T05:04:18.983Z,22.98
2018-06-14T05:04:45.122Z,23.08
2018-06-14T05:05:11.261Z,23.03
2018-06-14T05:05:37.405Z,23.02
2018-06-14T05:06:03.541Z,22.98
2018-06-14T05:06:29.678Z,23.09
2018-06-14T05:06:55.854Z,23.21
2018-06-14T05:07:22.021Z,23.28
2018-06-14T05:07:48.164Z,23.44
2018-06-14T05:08:14.311Z,23.47
2018-06-14T05:08:40.442Z,23.47
2018-06-14T05:09:06.648Z,23.44
2018-06-14T05:09:32.785Z,23.5
2018-06-14T05:09:58.928Z,23.61
2018-06-14T05:10:25.064Z,23.58
2018-06-14T05:10:51.237Z,23.68
2018-06-14T05:11:17.375Z,23.71
2018-06-14T05:11:43.511Z,23.69
2018-06-14T05:12:09.708Z,23.68
2018-06-14T05:12:35.874Z,23.77
2018-06-14T05:13:02.018Z,23.62
2018-06-14T05:13:28.179Z,23.5
2018-06-14T05:13:54.325Z,23.59
2018-06-14T05:14:20.462Z,23.47
2018-06-14T05:14:46.606Z,23.39
2018-06-14T05:15:12.753Z,23.32
2018-06-14T05:15:38.896Z,23.27
2018-06-14T05:16:05.034Z,23.18
2018-06-14T05:16:31.195Z,23.12
2018-06-14T05:16:57.361Z,22.98
2018-06-14T05:17:23.497Z,22.88
2018-06-14T05:17:49.678Z,22.9
2018-06-14T05:18:15.847Z,22.66
2018-06-14T05:18:41.984Z,22.62
2018-06-14T05:19:08.125Z,22.54
2018-06-14T05:19:34.263Z,22.45
2018-06-14T05:20:00.406Z,22.43
2018-06-14T05:20:26.559Z,22.23
2018-06-14T05:20:52.695Z,22.11
2018-06-14T05:21:18.856Z,22.02
2018-06-14T05:21:44.998Z,21.8
2018-06-14T05:22:11.163Z,21.66
2018-06-14T05:22:37.311Z,21.54
2018-06-14T05:23:03.450Z,21.46
2018-06-14T05:23:29.648Z,21.45
2018-06-14T05:23:55.731Z,21.37
2018-06-14T05:24:21.881Z,21.17
2018-06-14T05:24:48.020Z,21.05
2018-06-14T05:25:14.202Z,21.06
2018-06-14T05:25:40.346Z,20.95
2018-06-14T05:26:06.489Z,20.74
2018-06-14T05:26:32.649Z,20.56
2018-06-14T05:26:58.843Z,20.44
2018-06-14T05:27:24.980Z,20.47
2018-06-14T05:27:51.131Z,20.26
2018-06-14T05:28:17.265Z,20.13
2018-06-14T05:28:43.405Z,20.11
2018-06-14T05:29:09.544Z,20.04
2018-06-14T05:29:35.745Z,19.91
2018-06-14T05:30:01.827Z,19.81
2018-06-14T05:30:28.011Z,19.77
2018-06-14T05:30:54.154Z,19.7
2018-06-14T05:31:20.302Z,19.74
2018-06-14T05:31:46.439Z,19.58
2018-06-14T05:32:12.600Z,19.49
2018-06-14T05:32:38.743Z,19.51
2018-06-14T05:33:04.890Z,19.41
2018-06-14T05:33:31.031Z,19.41
2018-06-14T05:33:57.166Z,19.29
2018-06-14T05:34:23.334Z,19.34
2018-06-14T05:34:49.468Z,19.27
2018-06-14T05:35:15.606Z,19.29
2018-06-14T05:35:41.754Z,19.24
2018-06-14T05:36:07.912Z,19.24
2018-06-14T05:36:34.079Z,19.11
2018-06-14T05:37:00.232Z,19.11
2018-06-14T05:37:26.365Z,19.02
2018-06-14T05:37:52.504Z,19